Time;durP1;ratioP1;P1;durP2;ratioP2;P2;SDS_P1;SDS_P2;PMS_P1;PMS_P2;Temp;Humidity;BMP_temperature;BMP_pressure;BME280_temperature;BME280_humidity;BME280_pressure;Samples;Min_cycle;Max_cycle;Signal;HPM_P1;HPM_P2
2023/04/21 00:01:17;;;;;;;;;;;24.00;47.30;;;;;;6160927;28;75219;-61
2023/04/21 00:04:18;;;;;;;;;;;24.00;47.20;;;;;;6152680;28;76473;-63
2023/04/21 00:07:19;;;;;;;;;;;24.00;47.30;;;;;;6154101;28;75660;-63
2023/04/21 00:10:19;;;;;;;;;;;24.00;47.20;;;;;;6161810;28;75313;-63
2023/04/21 00:13:20;;;;;;;;;;;24.00;47.30;;;;;;6162269;28;75179;-62
2023/04/21 00:16:20;;;;;;;;;;;23.90;47.20;;;;;;6161209;28;75207;-62
2023/04/21 00:19:22;;;;;;;;;;;23.90;47.20;;;;;;6160924;28;75952;-62
2023/04/21 00:22:23;;;;;;;;;;;23.90;47.10;;;;;;6160988;28;76758;-62
2023/04/21 00:25:23;;;;;;;;;;;23.90;47.10;;;;;;6150512;28;75371;-61
2023/04/21 00:28:24;;;;;;;;;;;23.90;47.10;;;;;;6143544;28;75106;-63
2023/04/21 00:31:24;;;;;;;;;;;24.00;47.10;;;;;;6161061;28;75285;-63
2023/04/21 00:34:25;;;;;;;;;;;24.00;47.30;;;;;;6161232;28;75491;-63
2023/04/21 00:37:26;;;;;;;;;;;24.00;47.20;;;;;;6175188;28;78344;-63
2023/04/21 00:40:26;;;;;;;;;;;24.00;47.20;;;;;;6151636;28;78336;-67
2023/04/21 00:43:27;;;;;;;;;;;24.00;47.20;;;;;;6159770;28;75723;-69
2023/04/21 00:46:28;;;;;;;;;;;23.90;47.20;;;;;;6150972;28;76765;-70
2023/04/21 00:49:28;;;;;;;;;;;23.90;47.10;;;;;;6146723;28;78084;-68
2023/04/21 00:52:29;;;;;;;;;;;24.00;47.20;;;;;;6147707;28;76729;-70
2023/04/21 00:55:30;;;;;;;;;;;23.90;47.10;;;;;;6135444;28;75352;-71
2023/04/21 00:58:31;;;;;;;;;;;23.90;47.00;;;;;;6135829;28;76157;-67
2023/04/21 01:01:33;;;;;;;;;;;23.90;47.00;;;;;;6138346;28;76341;-65
2023/04/21 01:04:38;;;;;;;;;;;23.90;47.00;;;;;;6134252;28;77932;-67
2023/04/21 01:07:39;;;;;;;;;;;23.90;46.90;;;;;;6154955;28;75315;-66
2023/04/21 01:10:39;;;;;;;;;;;23.90;47.00;;;;;;6151984;28;76487;-66
2023/04/21 01:13:40;;;;;;;;;;;23.90;47.00;;;;;;6163884;28;78173;-68
2023/04/21 01:16:40;;;;;;;;;;;23.80;46.90;;;;;;6158904;28;75651;-68
2023/04/21 01:19:41;;;;;;;;;;;23.80;47.00;;;;;;6158982;28;76607;-68
2023/04/21 01:22:43;;;;;;;;;;;23.80;47.00;;;;;;6160171;28;75753;-67
2023/04/21 01:25:44;;;;;;;;;;;23.80;46.90;;;;;;6131888;28;78233;-66
2023/04/21 01:28:46;;;;;;;;;;;23.80;46.90;;;;;;6154318;28;75115;-67
2023/04/21 01:31:47;;;;;;;;;;;23.80;46.90;;;;;;6160805;28;75231;-67
2023/04/21 01:34:47;;;;;;;;;;;23.80;46.90;;;;;;6159548;28;75867;-61
2023/04/21 01:37:48;;;;;;;;;;;23.80;47.50;;;;;;6159432;28;75643;-62
2023/04/21 01:40:48;;;;;;;;;;;23.80;46.90;;;;;;6159720;28;77877;-63
2023/04/21 01:43:49;;;;;;;;;;;23.90;46.90;;;;;;6159911;28;75992;-61
2023/04/21 01:46:49;;;;;;;;;;;23.80;46.90;;;;;;6158868;28;76622;-61
2023/04/21 01:49:51;;;;;;;;;;;23.90;46.90;;;;;;6143557;28;78433;-60
2023/04/21 01:52:52;;;;;;;;;;;23.80;46.80;;;;;;6144312;28;78140;-61
2023/04/21 01:55:53;;;;;;;;;;;23.80;46.80;;;;;;6153998;28;76477;-62
2023/04/21 01:58:53;;;;;;;;;;;23.80;46.80;;;;;;6158353;28;76315;-61
2023/04/21 02:01:54;;;;;;;;;;;23.80;46.80;;;;;;6150748;28;78390;-61
2023/04/21 02:04:54;;;;;;;;;;;23.80;46.80;;;;;;6150549;28;78246;-61
2023/04/21 02:07:55;;;;;;;;;;;23.80;46.70;;;;;;6142268;28;78359;-62
2023/04/21 02:10:56;;;;;;;;;;;23.80;46.70;;;;;;6156952;28;76522;-61
2023/04/21 02:13:56;;;;;;;;;;;23.80;46.70;;;;;;6158932;28;75946;-61
2023/04/21 02:16:57;;;;;;;;;;;23.80;46.70;;;;;;6159409;28;76061;-61
2023/04/21 02:19:57;;;;;;;;;;;23.80;46.60;;;;;;6149694;28;76450;-62
2023/04/21 02:22:58;;;;;;;;;;;23.80;47.30;;;;;;6167431;28;78076;-62
2023/04/21 02:26:01;;;;;;;;;;;23.80;46.80;;;;;;6157387;28;78004;-60
2023/04/21 02:29:01;;;;;;;;;;;23.80;46.80;;;;;;6158383;28;75752;-61
2023/04/21 02:32:02;;;;;;;;;;;23.80;46.90;;;;;;6133616;28;76563;-62
2023/04/21 02:35:03;;;;;;;;;;;23.80;46.90;;;;;;6155944;28;76442;-61
2023/04/21 02:38:07;;;;;;;;;;;23.80;46.90;;;;;;6139769;28;78339;-60
2023/04/21 02:41:08;;;;;;;;;;;23.80;47.00;;;;;;6116505;28;78637;-60
2023/04/21 02:44:09;;;;;;;;;;;23.80;47.10;;;;;;6132897;28;76921;-61
2023/04/21 02:47:09;;;;;;;;;;;23.80;47.00;;;;;;6133973;28;75310;-60
2023/04/21 02:50:10;;;;;;;;;;;23.80;47.00;;;;;;6157551;28;75193;-60
2023/04/21 02:53:10;;;;;;;;;;;23.80;47.00;;;;;;6173239;28;78228;-61
2023/04/21 02:56:11;;;;;;;;;;;23.70;47.00;;;;;;6158431;28;77699;-63
2023/04/21 02:59:15;;;;;;;;;;;23.80;47.00;;;;;;6147926;28;75403;-61
2023/04/21 03:02:15;;;;;;;;;;;23.80;47.00;;;;;;6133600;28;75232;-60
2023/04/21 03:05:16;;;;;;;;;;;23.80;47.00;;;;;;6130902;28;78147;-60
2023/04/21 03:08:17;;;;;;;;;;;23.80;47.00;;;;;;6137124;28;75173;-64
2023/04/21 03:11:17;;;;;;;;;;;23.80;47.00;;;;;;6132245;28;78551;-65
2023/04/21 03:14:19;;;;;;;;;;;23.80;46.90;;;;;;6162533;28;79785;-64
2023/04/21 03:17:20;;;;;;;;;;;23.80;46.80;;;;;;6151328;28;78222;-64
2023/04/21 03:20:21;;;;;;;;;;;23.80;46.80;;;;;;6157368;28;76531;-65
2023/04/21 03:23:21;;;;;;;;;;;23.80;47.00;;;;;;6157787;28;75766;-65
2023/04/21 03:26:22;;;;;;;;;;;23.80;47.00;;;;;;6156935;28;77001;-62
2023/04/21 03:29:22;;;;;;;;;;;23.80;46.80;;;;;;6158393;28;75508;-58
2023/04/21 03:32:23;;;;;;;;;;;23.80;47.00;;;;;;6159650;28;75818;-58
2023/04/21 03:35:24;;;;;;;;;;;23.80;47.00;;;;;;6159313;28;78308;-60
2023/04/21 03:38:24;;;;;;;;;;;23.80;46.80;;;;;;6177143;28;76478;-57
2023/04/21 03:41:25;;;;;;;;;;;23.90;46.80;;;;;;6159750;28;79285;-55
2023/04/21 03:44:27;;;;;;;;;;;23.90;46.70;;;;;;6161892;28;74738;-62
2023/04/21 03:47:28;;;;;;;;;;;24.00;46.60;;;;;;6160356;28;76784;-66
2023/04/21 03:50:28;;;;;;;;;;;24.00;46.40;;;;;;6161773;28;76538;-65
2023/04/21 03:53:29;;;;;;;;;;;24.00;46.30;;;;;;6162515;28;75675;-71
2023/04/21 03:56:29;;;;;;;;;;;24.10;46.40;;;;;;6177452;28;75259;-70
2023/04/21 03:59:30;;;;;;;;;;;24.10;46.50;;;;;;6162317;28;77360;-63
2023/04/21 04:02:30;;;;;;;;;;;24.10;46.50;;;;;;6162165;28;75193;-59
2023/04/21 04:05:31;;;;;;;;;;;24.10;46.60;;;;;;6160913;28;75873;-61
2023/04/21 04:08:31;;;;;;;;;;;24.10;46.70;;;;;;6160447;28;75613;-63
2023/04/21 04:11:32;;;;;;;;;;;24.10;46.90;;;;;;6156374;28;75686;-67
2023/04/21 04:14:32;;;;;;;;;;;24.20;47.10;;;;;;6158831;28;76096;-61
2023/04/21 04:17:33;;;;;;;;;;;24.10;47.10;;;;;;6158509;28;76058;-66
2023/04/21 04:20:35;;;;;;;;;;;24.10;47.30;;;;;;6155921;28;75562;-66
2023/04/21 04:23:36;;;;;;;;;;;24.10;47.30;;;;;;6154124;28;77823;-64
2023/04/21 04:26:37;;;;;;;;;;;24.10;46.60;;;;;;6158420;28;75557;-62
2023/04/21 04:29:38;;;;;;;;;;;24.10;47.20;;;;;;6150500;28;76855;-68
2023/04/21 04:32:39;;;;;;;;;;;24.10;47.20;;;;;;6158280;28;75260;-62
2023/04/21 04:35:39;;;;;;;;;;;24.10;47.20;;;;;;6141584;28;76438;-69
2023/04/21 04:38:40;;;;;;;;;;;24.20;47.20;;;;;;6145676;28;76554;-69
2023/04/21 04:41:41;;;;;;;;;;;24.20;47.50;;;;;;6147415;28;75986;-70
2023/04/21 04:44:41;;;;;;;;;;;24.20;47.40;;;;;;6131494;28;76572;-72
2023/04/21 04:47:42;;;;;;;;;;;24.10;47.40;;;;;;6154305;28;76953;-68
2023/04/21 04:50:42;;;;;;;;;;;24.10;47.40;;;;;;6158093;28;76068;-71
2023/04/21 04:53:43;;;;;;;;;;;24.10;47.40;;;;;;6158545;28;80452;-68
2023/04/21 04:56:43;;;;;;;;;;;24.20;47.50;;;;;;6155141;28;76133;-61
2023/04/21 04:59:45;;;;;;;;;;;24.20;47.40;;;;;;6154758;28;80336;-59
2023/04/21 05:02:45;;;;;;;;;;;24.20;47.20;;;;;;6139306;28;77456;-59
2023/04/21 05:05:46;;;;;;;;;;;24.20;47.10;;;;;;6152140;28;75300;-59
2023/04/21 05:08:47;;;;;;;;;;;24.20;47.00;;;;;;6154272;28;75504;-58
2023/04/21 05:11:47;;;;;;;;;;;24.20;46.90;;;;;;6150102;28;76966;-59
2023/04/21 05:14:48;;;;;;;;;;;24.20;47.10;;;;;;6149556;28;78313;-61
2023/04/21 05:17:48;;;;;;;;;;;24.10;47.80;;;;;;6149811;28;75261;-71
2023/04/21 05:20:49;;;;;;;;;;;24.10;48.00;;;;;;6136215;28;78726;-63
2023/04/21 05:23:49;;;;;;;;;;;24.10;47.70;;;;;;6156286;28;77546;-67
2023/04/21 05:26:50;;;;;;;;;;;24.10;47.70;;;;;;6155718;28;75097;-68
2023/04/21 05:29:50;;;;;;;;;;;24.10;47.70;;;;;;6155949;28;75227;-68
2023/04/21 05:32:51;;;;;;;;;;;24.10;47.70;;;;;;6149197;28;75306;-65
2023/04/21 05:35:51;;;;;;;;;;;24.10;47.90;;;;;;6156145;28;75584;-68
2023/04/21 05:38:53;;;;;;;;;;;24.10;48.10;;;;;;6104083;28;76828;-68
2023/04/21 05:41:55;;;;;;;;;;;24.20;47.80;;;;;;6011182;28;79923;-68
2023/04/21 05:44:57;;;;;;;;;;;24.20;47.70;;;;;;6099600;28;79806;-69
2023/04/21 05:47:57;;;;;;;;;;;24.20;47.70;;;;;;6154952;28;76319;-69
2023/04/21 05:50:57;;;;;;;;;;;24.20;47.60;;;;;;6155612;28;78329;-69
2023/04/21 05:53:58;;;;;;;;;;;24.20;47.50;;;;;;6155502;28;76803;-59
2023/04/21 05:57:00;;;;;;;;;;;24.10;47.40;;;;;;6136224;28;75573;-59
2023/04/21 06:00:00;;;;;;;;;;;24.20;47.40;;;;;;6150255;28;75394;-60
2023/04/21 06:03:01;;;;;;;;;;;24.20;47.40;;;;;;6154820;28;76491;-58
2023/04/21 06:06:01;;;;;;;;;;;24.20;47.20;;;;;;6149774;28;75376;-59
2023/04/21 06:09:02;;;;;;;;;;;24.20;47.30;;;;;;6154024;28;75374;-58
2023/04/21 06:12:02;;;;;;;;;;;24.20;47.10;;;;;;6156521;28;75376;-58
2023/04/21 06:15:03;;;;;;;;;;;24.20;47.00;;;;;;6153679;28;76540;-58
2023/04/21 06:18:04;;;;;;;;;;;24.20;47.00;;;;;;6156175;28;75246;-58
2023/04/21 06:21:04;;;;;;;;;;;24.20;47.00;;;;;;6149670;28;76084;-59
2023/04/21 06:24:05;;;;;;;;;;;24.20;47.00;;;;;;6156368;28;75447;-59
2023/04/21 06:27:05;;;;;;;;;;;24.20;47.10;;;;;;6156156;28;76802;-59
2023/04/21 06:30:06;;;;;;;;;;;24.30;47.00;;;;;;6157543;28;75923;-59
2023/04/21 06:33:06;;;;;;;;;;;24.30;47.10;;;;;;6155470;28;76851;-59
2023/04/21 06:36:07;;;;;;;;;;;24.30;47.00;;;;;;6156786;28;75770;-59
2023/04/21 06:39:07;;;;;;;;;;;24.20;47.10;;;;;;6154425;28;77226;-59
2023/04/21 06:42:08;;;;;;;;;;;24.20;47.20;;;;;;6154887;28;76135;-59
2023/04/21 06:45:15;;;;;;;;;;;24.20;47.00;;;;;;6151611;28;77347;-59
2023/04/21 06:48:16;;;;;;;;;;;24.30;47.60;;;;;;6153734;28;75919;-73
2023/04/21 06:51:17;;;;;;;;;;;24.30;47.50;;;;;;6157332;28;75021;-71
2023/04/21 06:54:17;;;;;;;;;;;24.30;47.20;;;;;;6155325;28;75409;-74
2023/04/21 06:57:17;;;;;;;;;;;24.30;47.10;;;;;;6156687;28;75346;-71
2023/04/21 07:00:18;;;;;;;;;;;24.30;46.90;;;;;;6155054;28;75795;-69
2023/04/21 07:03:18;;;;;;;;;;;24.30;46.90;;;;;;6150987;28;74863;-69
2023/04/21 07:06:19;;;;;;;;;;;24.30;46.80;;;;;;6156750;28;75764;-68
2023/04/21 07:09:19;;;;;;;;;;;24.30;46.70;;;;;;6153327;28;75850;-69
2023/04/21 07:12:20;;;;;;;;;;;24.40;46.80;;;;;;6155122;28;75203;-71
2023/04/21 07:15:21;;;;;;;;;;;24.30;46.70;;;;;;6152790;28;75273;-67
2023/04/21 07:18:21;;;;;;;;;;;24.30;46.70;;;;;;6166299;28;76873;-70
2023/04/21 07:21:22;;;;;;;;;;;24.30;46.80;;;;;;6143503;28;75866;-73
2023/04/21 07:24:22;;;;;;;;;;;24.30;46.60;;;;;;6139393;28;76582;-62
2023/04/21 07:27:23;;;;;;;;;;;24.30;46.70;;;;;;6153717;28;75334;-62
2023/04/21 07:30:23;;;;;;;;;;;24.30;46.70;;;;;;6154344;28;75274;-61
2023/04/21 07:33:24;;;;;;;;;;;24.40;46.70;;;;;;6155215;28;75255;-61
2023/04/21 07:36:27;;;;;;;;;;;24.30;46.60;;;;;;6149885;28;76525;-59
2023/04/21 07:39:27;;;;;;;;;;;24.30;46.50;;;;;;6151848;28;75345;-58
2023/04/21 07:42:28;;;;;;;;;;;24.30;46.70;;;;;;6156099;28;75909;-66
2023/04/21 07:45:28;;;;;;;;;;;24.40;46.80;;;;;;6151843;28;77156;-63
2023/04/21 07:48:29;;;;;;;;;;;24.40;46.60;;;;;;6151218;28;76984;-63
2023/04/21 07:51:30;;;;;;;;;;;24.30;46.80;;;;;;6152164;28;76736;-63
2023/04/21 07:54:31;;;;;;;;;;;24.40;46.90;;;;;;6159838;28;75710;-67
2023/04/21 07:57:33;;;;;;;;;;;24.40;46.90;;;;;;6139450;28;76498;-59
2023/04/21 08:00:34;;;;;;;;;;;24.40;47.30;;;;;;6152348;28;79961;-62
2023/04/21 08:03:34;;;;;;;;;;;24.50;47.10;;;;;;6133795;28;77010;-60
2023/04/21 08:06:35;;;;;;;;;;;24.40;46.00;;;;;;6161215;28;75939;-60
2023/04/21 08:09:35;;;;;;;;;;;24.40;45.50;;;;;;6160106;28;75773;-61
2023/04/21 08:12:36;;;;;;;;;;;24.40;44.90;;;;;;6162405;28;75336;-61
2023/04/21 08:15:36;;;;;;;;;;;24.30;44.50;;;;;;6160940;28;74934;-60
2023/04/21 08:18:37;;;;;;;;;;;24.30;44.40;;;;;;6153668;28;79022;-59
2023/04/21 08:21:38;;;;;;;;;;;24.30;44.10;;;;;;6158815;28;75420;-61
2023/04/21 08:24:38;;;;;;;;;;;24.30;44.20;;;;;;6173611;28;76606;-59
2023/04/21 08:27:39;;;;;;;;;;;24.30;44.10;;;;;;6154888;28;75331;-59
2023/04/21 08:30:39;;;;;;;;;;;24.30;43.60;;;;;;6154137;28;76271;-60
2023/04/21 08:33:40;;;;;;;;;;;24.30;43.70;;;;;;6162057;28;80321;-59
2023/04/21 08:36:41;;;;;;;;;;;24.30;43.60;;;;;;6161186;28;75403;-60
2023/04/21 08:39:42;;;;;;;;;;;24.30;43.70;;;;;;6161138;28;80127;-61
2023/04/21 08:42:42;;;;;;;;;;;24.30;43.50;;;;;;6160876;28;75110;-61
2023/04/21 08:45:43;;;;;;;;;;;24.30;43.30;;;;;;6156274;28;75270;-59
2023/04/21 08:48:43;;;;;;;;;;;24.40;43.60;;;;;;6152343;28;75384;-61
2023/04/21 08:51:44;;;;;;;;;;;24.30;43.30;;;;;;6161663;28;75358;-61
2023/04/21 08:54:46;;;;;;;;;;;24.40;43.70;;;;;;6164900;28;76236;-61
2023/04/21 08:57:46;;;;;;;;;;;24.40;43.60;;;;;;6159959;28;75466;-60
2023/04/21 09:00:47;;;;;;;;;;;24.40;43.20;;;;;;6154021;28;74761;-60
2023/04/21 09:03:47;;;;;;;;;;;24.40;43.40;;;;;;6158261;28;76716;-61
2023/04/21 09:06:48;;;;;;;;;;;24.40;43.10;;;;;;6161138;28;75573;-60
2023/04/21 09:09:48;;;;;;;;;;;24.40;43.10;;;;;;6140464;28;75830;-61
2023/04/21 09:12:49;;;;;;;;;;;24.40;43.00;;;;;;6149835;28;78042;-61
2023/04/21 09:15:50;;;;;;;;;;;24.50;43.00;;;;;;6156776;28;75691;-63
2023/04/21 09:18:50;;;;;;;;;;;24.60;42.80;;;;;;6153850;28;76246;-64
2023/04/21 09:21:51;;;;;;;;;;;24.60;42.20;;;;;;6157230;28;74796;-58
2023/04/21 09:24:51;;;;;;;;;;;24.60;42.60;;;;;;6158471;28;76116;-65
2023/04/21 09:27:52;;;;;;;;;;;24.60;42.30;;;;;;6156701;28;75258;-62
2023/04/21 09:30:52;;;;;;;;;;;24.60;42.40;;;;;;6159866;28;75088;-63
2023/04/21 09:33:53;;;;;;;;;;;24.60;41.80;;;;;;6157977;28;76968;-63
2023/04/21 09:36:53;;;;;;;;;;;24.60;41.80;;;;;;6157643;28;76871;-63
2023/04/21 09:39:54;;;;;;;;;;;24.60;42.30;;;;;;6158453;28;77084;-61
2023/04/21 09:42:54;;;;;;;;;;;24.60;42.00;;;;;;6159533;28;75402;-61
2023/04/21 09:45:55;;;;;;;;;;;24.60;41.30;;;;;;6152219;28;80990;-64
2023/04/21 09:48:56;;;;;;;;;;;24.60;41.70;;;;;;6157707;28;76710;-63
2023/04/21 09:51:56;;;;;;;;;;;24.60;41.60;;;;;;6156840;28;76072;-60
2023/04/21 09:54:57;;;;;;;;;;;24.60;41.80;;;;;;6154625;28;74803;-59
2023/04/21 09:57:57;;;;;;;;;;;24.70;41.00;;;;;;6132593;28;75561;-60
2023/04/21 10:00:58;;;;;;;;;;;24.70;40.40;;;;;;6111709;28;76480;-61
2023/04/21 10:03:58;;;;;;;;;;;24.60;39.50;;;;;;6123831;28;75028;-60
2023/04/21 10:06:59;;;;;;;;;;;24.60;39.30;;;;;;6143243;28;77989;-60
2023/04/21 10:09:59;;;;;;;;;;;24.60;39.50;;;;;;6157359;28;75173;-64
2023/04/21 10:13:00;;;;;;;;;;;24.60;39.10;;;;;;6153397;28;79191;-65
2023/04/21 10:16:01;;;;;;;;;;;24.70;39.30;;;;;;6155182;28;80162;-65
2023/04/21 10:19:02;;;;;;;;;;;24.70;39.20;;;;;;6158883;28;75340;-65
2023/04/21 10:22:02;;;;;;;;;;;24.80;40.40;;;;;;6158893;28;75369;-64
2023/04/21 10:25:03;;;;;;;;;;;24.70;39.50;;;;;;6158558;28;75389;-64
2023/04/21 10:28:05;;;;;;;;;;;24.70;39.40;;;;;;6157340;28;75384;-62
2023/04/21 10:31:05;;;;;;;;;;;24.70;39.40;;;;;;6159033;28;75368;-62
2023/04/21 10:34:06;;;;;;;;;;;24.80;40.20;;;;;;6158979;28;75175;-63
2023/04/21 10:37:07;;;;;;;;;;;24.80;40.70;;;;;;6157936;28;75348;-65
2023/04/21 10:40:11;;;;;;;;;;;24.80;39.90;;;;;;6159690;28;75695;-70
2023/04/21 10:43:12;;;;;;;;;;;24.80;39.70;;;;;;6152605;28;75772;-62
2023/04/21 10:46:12;;;;;;;;;;;24.80;40.00;;;;;;6160523;28;75253;-61
2023/04/21 10:49:13;;;;;;;;;;;24.90;40.00;;;;;;6117923;28;76131;-58
2023/04/21 10:52:15;;;;;;;;;;;24.90;39.60;;;;;;6147932;28;75927;-60
2023/04/21 10:55:15;;;;;;;;;;;24.90;39.10;;;;;;6158288;28;77521;-60
2023/04/21 10:58:16;;;;;;;;;;;24.90;39.00;;;;;;6152352;28;80681;-60
2023/04/21 11:01:16;;;;;;;;;;;25.00;40.00;;;;;;6156745;28;77638;-61
2023/04/21 11:04:17;;;;;;;;;;;25.00;40.60;;;;;;6134144;28;78193;-75
2023/04/21 11:07:17;;;;;;;;;;;25.10;40.90;;;;;;6131809;28;75838;-74
2023/04/21 11:10:18;;;;;;;;;;;25.10;41.50;;;;;;6144819;28;80652;-73
2023/04/21 11:13:18;;;;;;;;;;;25.10;41.90;;;;;;6154768;28;75116;-73
2023/04/21 11:16:19;;;;;;;;;;;25.10;42.10;;;;;;6155270;28;75142;-73
2023/04/21 11:19:23;;;;;;;;;;;25.10;42.10;;;;;;6153261;28;75853;-75
2023/04/21 11:22:23;;;;;;;;;;;25.10;42.20;;;;;;6155983;28;76124;-75
2023/04/21 11:25:24;;;;;;;;;;;25.10;42.10;;;;;;6150825;28;77976;-74
2023/04/21 11:28:24;;;;;;;;;;;25.10;42.30;;;;;;6152134;28;75880;-78
2023/04/21 11:31:25;;;;;;;;;;;25.10;42.30;;;;;;6157196;28;76090;-77
2023/04/21 11:34:25;;;;;;;;;;;25.10;42.80;;;;;;6158693;28;75758;-71
2023/04/21 11:37:26;;;;;;;;;;;25.10;43.10;;;;;;6158591;28;77567;-75
2023/04/21 11:40:27;;;;;;;;;;;25.10;43.10;;;;;;6138047;28;76729;-75
2023/04/21 11:43:27;;;;;;;;;;;25.10;43.20;;;;;;6167225;28;78123;-66
2023/04/21 11:46:28;;;;;;;;;;;25.10;43.30;;;;;;6155441;28;74796;-67
2023/04/21 11:49:29;;;;;;;;;;;25.10;43.40;;;;;;6141928;28;75978;-66
2023/04/21 11:52:31;;;;;;;;;;;25.20;43.60;;;;;;6151995;28;75847;-66
2023/04/21 11:55:33;;;;;;;;;;;25.20;43.40;;;;;;6158523;28;75999;-68
2023/04/21 11:58:34;;;;;;;;;;;25.10;43.40;;;;;;6156392;28;75641;-71
2023/04/21 12:01:34;;;;;;;;;;;25.10;43.50;;;;;;6157935;28;75474;-60
2023/04/21 12:04:35;;;;;;;;;;;25.10;43.60;;;;;;6152448;28;75510;-61
2023/04/21 12:07:35;;;;;;;;;;;25.10;43.70;;;;;;6138860;28;78650;-60
2023/04/21 12:10:36;;;;;;;;;;;25.10;43.90;;;;;;6153095;28;75256;-60
2023/04/21 12:13:36;;;;;;;;;;;25.10;44.10;;;;;;6154774;28;74746;-61
2023/04/21 12:16:37;;;;;;;;;;;25.10;44.20;;;;;;6157346;28;76037;-61
2023/04/21 12:19:41;;;;;;;;;;;25.10;44.60;;;;;;6155954;28;75687;-60
2023/04/21 12:22:41;;;;;;;;;;;25.10;44.70;;;;;;6156735;28;79346;-61
2023/04/21 12:25:42;;;;;;;;;;;25.10;44.90;;;;;;6156325;28;77465;-62
2023/04/21 12:28:42;;;;;;;;;;;25.20;45.10;;;;;;6134492;28;75467;-62
2023/04/21 12:31:43;;;;;;;;;;;25.20;45.20;;;;;;6149038;28;75307;-61
2023/04/21 12:34:43;;;;;;;;;;;25.20;45.30;;;;;;6152374;28;76109;-61
2023/04/21 12:37:44;;;;;;;;;;;25.20;45.30;;;;;;6158215;28;76438;-69
2023/04/21 12:40:44;;;;;;;;;;;25.30;45.40;;;;;;6131810;28;76544;-69
2023/04/21 12:43:45;;;;;;;;;;;25.30;45.40;;;;;;6128254;28;80942;-68
2023/04/21 12:46:47;;;;;;;;;;;25.20;45.30;;;;;;6121101;28;75845;-67
2023/04/21 12:49:48;;;;;;;;;;;25.30;45.40;;;;;;6153405;28;75824;-68
2023/04/21 12:52:50;;;;;;;;;;;25.30;45.50;;;;;;6142954;28;79501;-68
2023/04/21 12:55:50;;;;;;;;;;;25.30;45.40;;;;;;6148785;28;74786;-60
2023/04/21 12:58:51;;;;;;;;;;;25.30;45.10;;;;;;6152579;28;76646;-61
2023/04/21 13:01:51;;;;;;;;;;;25.30;45.00;;;;;;6149331;28;77905;-66
2023/04/21 13:04:52;;;;;;;;;;;25.20;45.10;;;;;;6120456;28;75556;-64
2023/04/21 13:07:54;;;;;;;;;;;25.20;44.90;;;;;;6151203;28;76127;-65
2023/04/21 13:10:54;;;;;;;;;;;25.20;44.30;;;;;;6124596;28;75016;-63
2023/04/21 13:13:55;;;;;;;;;;;25.20;43.80;;;;;;6139278;28;77211;-63
2023/04/21 13:16:55;;;;;;;;;;;25.20;43.20;;;;;;6154638;28;76193;-63
2023/04/21 13:19:56;;;;;;;;;;;25.20;41.30;;;;;;6149786;28;75593;-64
2023/04/21 13:22:56;;;;;;;;;;;25.20;42.30;;;;;;6157636;28;75380;-64
2023/04/21 13:25:57;;;;;;;;;;;25.20;42.60;;;;;;6148970;28;77079;-62
2023/04/21 13:28:57;;;;;;;;;;;25.20;42.50;;;;;;6147693;28;75774;-58
2023/04/21 13:31:58;;;;;;;;;;;25.10;40.40;;;;;;6150975;28;76208;-72
2023/04/21 13:34:58;;;;;;;;;;;25.10;41.40;;;;;;6158081;28;75039;-69
2023/04/21 13:37:59;;;;;;;;;;;25.20;38.80;;;;;;6156470;28;75276;-70
2023/04/21 13:40:59;;;;;;;;;;;25.10;35.70;;;;;;6159343;28;75328;-72
2023/04/21 13:44:00;;;;;;;;;;;25.10;36.20;;;;;;6156029;28;75517;-72
2023/04/21 13:47:00;;;;;;;;;;;25.10;38.00;;;;;;6160316;28;75868;-71
2023/04/21 13:50:01;;;;;;;;;;;25.00;36.60;;;;;;6160047;28;75425;-59
2023/04/21 13:53:02;;;;;;;;;;;24.90;35.40;;;;;;6159779;28;78497;-59
2023/04/21 13:56:02;;;;;;;;;;;25.00;34.70;;;;;;6160185;28;76029;-59
2023/04/21 13:59:03;;;;;;;;;;;24.90;33.80;;;;;;6156030;28;77200;-60
2023/04/21 14:02:03;;;;;;;;;;;24.90;35.30;;;;;;6159745;28;75387;-59
2023/04/21 14:05:04;;;;;;;;;;;24.80;34.70;;;;;;6141429;28;75367;-59
2023/04/21 14:08:04;;;;;;;;;;;24.80;34.80;;;;;;6153340;28;76678;-63
2023/04/21 14:11:05;;;;;;;;;;;24.80;34.20;;;;;;6155150;28;75373;-62
2023/04/21 14:14:05;;;;;;;;;;;24.80;34.40;;;;;;6145528;28;77289;-65
2023/04/21 14:17:06;;;;;;;;;;;24.80;33.10;;;;;;6144950;28;78151;-66
2023/04/21 14:20:08;;;;;;;;;;;24.70;32.80;;;;;;6122572;28;74723;-66
2023/04/21 14:23:08;;;;;;;;;;;24.70;32.80;;;;;;6154457;28;76594;-64
2023/04/21 14:26:09;;;;;;;;;;;24.60;32.90;;;;;;6142867;28;75073;-63
2023/04/21 14:29:09;;;;;;;;;;;24.70;33.00;;;;;;6157150;28;75193;-64
2023/04/21 14:32:10;;;;;;;;;;;24.70;32.70;;;;;;6141536;28;78222;-63
2023/04/21 14:35:11;;;;;;;;;;;24.70;31.90;;;;;;6137567;28;75014;-68
2023/04/21 14:38:11;;;;;;;;;;;24.60;31.50;;;;;;6142630;28;78062;-67
2023/04/21 14:41:12;;;;;;;;;;;24.60;31.40;;;;;;6130837;28;75447;-66
2023/04/21 14:44:12;;;;;;;;;;;24.60;31.10;;;;;;6143830;28;75588;-66
2023/04/21 14:47:13;;;;;;;;;;;24.60;31.90;;;;;;6146843;28;76207;-71
2023/04/21 14:50:13;;;;;;;;;;;24.50;30.70;;;;;;6131360;28;76166;-73
2023/04/21 14:53:14;;;;;;;;;;;24.50;31.00;;;;;;6137520;28;75503;-69
2023/04/21 14:56:15;;;;;;;;;;;24.40;30.80;;;;;;6133591;28;74977;-68
2023/04/21 14:59:15;;;;;;;;;;;24.40;30.70;;;;;;6125814;28;75394;-66
2023/04/21 15:02:16;;;;;;;;;;;24.40;30.30;;;;;;6141675;28;75380;-70
2023/04/21 15:05:17;;;;;;;;;;;24.40;30.60;;;;;;6136617;28;76438;-70
2023/04/21 15:08:17;;;;;;;;;;;24.40;30.90;;;;;;6138895;28;75959;-66
2023/04/21 15:11:18;;;;;;;;;;;24.40;30.80;;;;;;6137875;28;75785;-70
2023/04/21 15:14:18;;;;;;;;;;;24.40;31.50;;;;;;6139817;28;77293;-75
2023/04/21 15:17:19;;;;;;;;;;;24.40;32.00;;;;;;6142705;28;81360;-68
2023/04/21 15:20:19;;;;;;;;;;;24.40;31.30;;;;;;6142081;28;75405;-72
2023/04/21 15:23:20;;;;;;;;;;;24.40;31.90;;;;;;6139662;28;77291;-71
2023/04/21 15:26:21;;;;;;;;;;;24.30;31.60;;;;;;6136425;28;75470;-70
2023/04/21 15:29:22;;;;;;;;;;;24.30;31.90;;;;;;6136336;28;76585;-65
2023/04/21 15:32:22;;;;;;;;;;;24.20;32.10;;;;;;6146990;28;75146;-65
2023/04/21 15:35:23;;;;;;;;;;;24.30;32.30;;;;;;6135519;28;74919;-68
2023/04/21 15:38:23;;;;;;;;;;;24.30;32.70;;;;;;6141093;28;78374;-66
2023/04/21 15:41:25;;;;;;;;;;;24.40;32.40;;;;;;6135536;28;75396;-64
2023/04/21 15:44:25;;;;;;;;;;;24.30;31.70;;;;;;6142568;28;75458;-59
2023/04/21 15:47:26;;;;;;;;;;;24.20;31.50;;;;;;6137892;28;81367;-59
2023/04/21 15:50:28;;;;;;;;;;;23.90;31.80;;;;;;6138541;28;75443;-61
2023/04/21 15:53:29;;;;;;;;;;;24.00;31.80;;;;;;6134808;28;75409;-59
2023/04/21 15:56:30;;;;;;;;;;;24.10;32.30;;;;;;6135730;28;75794;-60
2023/04/21 15:59:30;;;;;;;;;;;24.10;32.30;;;;;;6132681;28;75404;-69
2023/04/21 16:02:31;;;;;;;;;;;24.10;32.70;;;;;;6133177;28;75322;-68
2023/04/21 16:05:31;;;;;;;;;;;24.10;32.30;;;;;;6133474;28;75355;-68
2023/04/21 16:08:32;;;;;;;;;;;24.10;32.20;;;;;;6133741;28;76899;-65
2023/04/21 16:11:33;;;;;;;;;;;24.10;32.20;;;;;;6136112;28;75226;-65
2023/04/21 16:14:33;;;;;;;;;;;24.10;32.30;;;;;;6132618;28;77812;-68
2023/04/21 16:17:35;;;;;;;;;;;24.10;32.50;;;;;;6137673;28;76101;-70
2023/04/21 16:20:36;;;;;;;;;;;24.10;33.40;;;;;;6136449;28;75263;-73
2023/04/21 16:23:36;;;;;;;;;;;24.20;33.90;;;;;;6137944;28;75257;-73
2023/04/21 16:26:37;;;;;;;;;;;24.20;34.40;;;;;;6135021;28;75850;-69
2023/04/21 16:29:37;;;;;;;;;;;24.30;34.70;;;;;;6135894;28;75327;-71
2023/04/21 16:32:38;;;;;;;;;;;24.30;34.60;;;;;;6136128;28;76638;-70
2023/04/21 16:35:38;;;;;;;;;;;24.30;35.00;;;;;;6136171;28;75522;-64
2023/04/21 16:38:39;;;;;;;;;;;24.30;35.20;;;;;;6137291;28;75892;-65
2023/04/21 16:41:39;;;;;;;;;;;24.30;35.40;;;;;;6136452;28;75124;-65
2023/04/21 16:44:40;;;;;;;;;;;24.30;35.70;;;;;;6133037;28;75427;-64
2023/04/21 16:47:40;;;;;;;;;;;24.30;35.70;;;;;;6137525;28;75270;-64
2023/04/21 16:50:41;;;;;;;;;;;24.30;35.90;;;;;;6136311;28;75152;-64
2023/04/21 16:53:41;;;;;;;;;;;24.30;36.10;;;;;;6136144;28;75331;-66
2023/04/21 16:56:43;;;;;;;;;;;24.40;36.80;;;;;;6136051;28;76699;-65
2023/04/21 16:59:43;;;;;;;;;;;24.40;36.80;;;;;;6134195;28;78608;-65
2023/04/21 17:02:44;;;;;;;;;;;24.30;36.80;;;;;;6136387;28;75898;-65
2023/04/21 17:05:44;;;;;;;;;;;24.40;37.10;;;;;;6136062;28;75802;-66
2023/04/21 17:08:45;;;;;;;;;;;24.40;36.70;;;;;;6137061;28;76011;-65
2023/04/21 17:11:46;;;;;;;;;;;24.40;36.80;;;;;;6136490;28;76808;-64
2023/04/21 17:14:47;;;;;;;;;;;24.30;37.10;;;;;;6135133;28;75177;-63
2023/04/21 17:17:48;;;;;;;;;;;24.30;36.80;;;;;;6136066;28;76330;-63
2023/04/21 17:20:48;;;;;;;;;;;24.30;37.20;;;;;;6135141;28;77470;-61
2023/04/21 17:23:49;;;;;;;;;;;24.30;37.30;;;;;;6133262;28;78924;-64
2023/04/21 17:26:50;;;;;;;;;;;24.30;38.00;;;;;;6118396;28;77471;-62
2023/04/21 17:29:50;;;;;;;;;;;24.30;38.10;;;;;;6113823;28;78386;-71